2009 MELOR (2009272N07164)


On this page: IBTrACS data - Map and Plots - Positions - Intensities - Original source data

Summary

Start Sep 28
End Oct 11
Basin WP
LMI 150 kt
Sources jtwc_wp
tokyo
cma
hko
In WMO? Yes
Previous storm 2009 GRACE (NA)
Previous in basin 2009 PARMA (WP)
Concurrent storms 2009 NORA (EP)
2009 KETSANA (WP)
2009 EIGHTEEN (WP)
2009 PARMA (WP)
2009 OLAF (EP)
2009 GRACE (NA)
2009 MELOR (WP)
2009 HENRI (NA)
2009 NEPARTAK (WP)
2009 PATRICIA (EP)
Next in basin 2009 NEPARTAK (WP)
Next storm 2009 HENRI (NA)

top of page IBTrACS Data: File Access

No storm imagery available

top of page Plots:

Map of storm track will not appear if FTP is down
Time series of cyclone Maximum Sustained Wind will not appear if FTP is down
Time series of cyclone Minimum Central Pressure will not appear if FTP is down

top of page Track Data:Position

jtwc_wp tokyo cma hko
Date Lat Lon Lat Lon Lat Lon Lat Lon
2009-09-28 12:00:00 7.3 163.8
2009-09-28 18:00:00 8.3 162.7
2009-09-29 00:00:00 9.1 161.4
2009-09-29 06:00:00 10.1 159.9 9.6 160.4 10.0 160.0 9.8 159.6
2009-09-29 12:00:00 10.5 158.7 10.6 157.4 10.6 157.4 10.4 158.0
2009-09-29 18:00:00 11.0 157.0 10.9 156.8 10.9 156.8 10.9 156.8
2009-09-30 00:00:00 11.7 155.8 11.5 156.2 11.5 156.0 11.7 155.8
2009-09-30 06:00:00 12.5 154.7 12.6 154.8 12.6 154.8 12.6 154.8
2009-09-30 12:00:00 12.8 153.9 12.9 154.0 12.9 154.0 12.9 154.0
2009-09-30 18:00:00 13.1 153.6 13.0 153.5 13.1 153.5 13.1 153.5
2009-10-01 00:00:00 13.6 153.2 13.6 153.2 13.5 153.2 13.5 153.2
2009-10-01 06:00:00 13.9 152.5 13.9 152.5 13.9 152.5 13.9 152.5
2009-10-01 12:00:00 14.1 151.9 14.1 152.0 14.1 152.0 14.1 152.0
2009-10-01 18:00:00 14.0 151.3 14.0 151.4 14.1 151.4 14.1 151.4
2009-10-02 00:00:00 14.4 151.0 14.2 151.1 14.2 151.1 14.2 151.1
2009-10-02 06:00:00 14.5 150.5 14.5 150.6 14.5 150.6 14.5 150.6
2009-10-02 12:00:00 15.1 149.7 15.0 149.9 15.0 149.9 15.0 149.9
2009-10-02 18:00:00 15.2 148.7 15.4 148.8 15.4 148.8 15.4 148.8
2009-10-03 00:00:00 15.5 147.7 15.6 147.9 15.6 147.9 15.6 147.9
2009-10-03 06:00:00 16.2 146.7 16.2 146.8 16.2 146.8 16.2 146.7
2009-10-03 12:00:00 16.6 145.1 16.5 145.3 16.5 145.3 16.5 145.2
2009-10-03 18:00:00 16.5 143.7 16.5 143.7 16.5 143.7 16.5 143.7
2009-10-04 00:00:00 16.6 142.3 16.6 142.3 16.6 142.3 16.6 142.2
2009-10-04 06:00:00 17.0 140.9 17.0 140.9 17.0 140.9 17.0 140.8
2009-10-04 12:00:00 17.5 139.3 17.5 139.4 17.5 139.4 17.5 139.3
jtwc_wp tokyo cma hko
2009-10-04 18:00:00 17.9 137.6 17.9 137.7 17.9 137.6 17.9 137.6
2009-10-05 00:00:00 18.6 136.2 18.5 136.3 18.4 136.3 18.4 136.3
2009-10-05 06:00:00 19.2 134.8 19.2 134.8 19.2 134.8 19.2 134.8
2009-10-05 12:00:00 20.0 133.5 20.0 133.6 20.0 133.6 20.0 133.6
2009-10-05 18:00:00 21.2 132.5 21.2 132.5 21.2 132.5 21.2 132.5
2009-10-06 00:00:00 22.5 131.7 22.5 131.7 22.5 131.7 22.5 131.7
2009-10-06 06:00:00 23.8 131.0 23.9 130.9 23.9 130.9 23.9 131.0
2009-10-06 12:00:00 25.2 130.6 25.1 130.7 25.1 130.7 25.1 130.6
2009-10-06 18:00:00 26.6 130.8 26.5 130.8 26.5 130.8 26.6 130.7
2009-10-07 00:00:00 28.3 131.4 28.2 131.5 28.2 131.5 28.2 131.4
2009-10-07 06:00:00 29.7 132.5 29.9 132.5 29.9 132.5 29.8 132.4
2009-10-07 12:00:00 31.4 134.7 31.6 134.3 31.6 134.3 31.6 134.5
2009-10-07 18:00:00 33.8 136.5 34.0 136.6 34.0 136.6 34.0 136.6
2009-10-08 00:00:00 36.2 138.2 36.1 138.8 36.1 138.8 36.1 138.8
2009-10-08 06:00:00 38.0 141.0 38.4 141.2 38.4 141.1 38.3 141.1
2009-10-08 12:00:00 39.3 143.2 40.0 143.6 40.0 143.6
2009-10-08 18:00:00 40.8 145.3 41.3 145.6 41.3 145.6
2009-10-09 00:00:00 42.1 147.7 42.2 147.7 42.2 147.8
2009-10-09 06:00:00 43.2 150.0
2009-10-09 12:00:00 44.2 152.4
2009-10-09 18:00:00 45.1 156.0
2009-10-10 00:00:00 46.0 159.2
2009-10-10 06:00:00 46.7 163.5
2009-10-10 12:00:00 46.7 167.4
jtwc_wp tokyo cma hko
2009-10-10 18:00:00 47.0 171.9
2009-10-11 00:00:00 47.2 177.1

top of pageTrack Data:Intensity

jtwc_wp tokyo cma hko
Date Wind Pres Wind Pres Wind Pres Wind Pres
2009-09-28 12:00:00 20. 1005.
2009-09-28 18:00:00 20. 1004.
2009-09-29 00:00:00 20. 1007.
2009-09-29 06:00:00 25. 1004. 1002. 29. 1002. 25. 1004.
2009-09-29 12:00:00 30. 1000. 998. 29. 1002. 30. 1002.
2009-09-29 18:00:00 35. 996. 998. 35. 998. 30. 998.
2009-09-30 00:00:00 40. 993. 35. 996. 39. 995. 35. 996.
2009-09-30 06:00:00 45. 989. 40. 992. 45. 995. 40. 992.
2009-09-30 12:00:00 55. 982. 45. 990. 49. 990. 45. 990.
2009-09-30 18:00:00 60. 978. 55. 980. 54. 990. 55. 980.
2009-10-01 00:00:00 70. 970. 65. 975. 64. 985. 65. 970.
2009-10-01 06:00:00 105. 944. 75. 955. 74. 975. 75. 960.
2009-10-01 12:00:00 115. 937. 80. 950. 78. 965. 80. 955.
2009-10-01 18:00:00 115. 937. 90. 940. 87. 960. 90. 945.
2009-10-02 00:00:00 115. 937. 95. 935. 97. 950. 95. 940.
2009-10-02 06:00:00 115. 937. 95. 935. 97. 940. 95. 940.
2009-10-02 12:00:00 115. 937. 95. 935. 97. 940. 95. 940.
2009-10-02 18:00:00 115. 937. 95. 935. 97. 940. 95. 940.
2009-10-03 00:00:00 115. 937. 95. 935. 97. 940. 95. 940.
2009-10-03 06:00:00 115. 937. 90. 940. 97. 940. 90. 945.
2009-10-03 12:00:00 120. 933. 95. 935. 97. 940. 95. 940.
2009-10-03 18:00:00 130. 926. 100. 925. 107. 935. 100. 930.
2009-10-04 00:00:00 145. 914. 105. 920. 117. 920. 105. 925.
2009-10-04 06:00:00 150. 911. 110. 910. 126. 910. 105. 925.
2009-10-04 12:00:00 150. 911. 110. 910. 126. 910. 110. 920.
jtwc_wp tokyo cma hko
2009-10-04 18:00:00 150. 911. 110. 910. 126. 910. 110. 920.
2009-10-05 00:00:00 140. 918. 105. 915. 126. 910. 105. 925.
2009-10-05 06:00:00 140. 918. 105. 915. 126. 910. 105. 925.
2009-10-05 12:00:00 135. 922. 95. 930. 117. 920. 105. 925.
2009-10-05 18:00:00 130. 926. 90. 935. 117. 920. 105. 925.
2009-10-06 00:00:00 120. 933. 90. 935. 107. 935. 105. 925.
2009-10-06 06:00:00 115. 936. 85. 940. 97. 940. 100. 930.
2009-10-06 12:00:00 105. 944. 85. 940. 97. 940. 100. 930.
2009-10-06 18:00:00 95. 952. 85. 940. 87. 950. 95. 940.
2009-10-07 00:00:00 95. 952. 85. 940. 84. 950. 85. 950.
2009-10-07 06:00:00 80. 963. 80. 945. 84. 950. 85. 950.
2009-10-07 12:00:00 75. 967. 80. 945. 78. 960. 85. 950.
2009-10-07 18:00:00 65. 974. 75. 955. 74. 965. 75. 960.
2009-10-08 00:00:00 55. 982. 60. 975. 64. 975. 65. 970.
2009-10-08 06:00:00 45. 989. 55. 984. 54. 985. 55. 980.
2009-10-08 12:00:00 45. 989. 980. 49. 980.
2009-10-08 18:00:00 45. 989. 980. 49. 980.
2009-10-09 00:00:00 45. 989. 984. 49. 984.
2009-10-09 06:00:00 984.
2009-10-09 12:00:00 984.
2009-10-09 18:00:00 982.
2009-10-10 00:00:00 982.
2009-10-10 06:00:00 982.
2009-10-10 12:00:00 984.
jtwc_wp tokyo cma hko
2009-10-10 18:00:00 988.
2009-10-11 00:00:00 988.

top of page Links to source data

Source Source file Format
jtwc_wp bwp202009.txt ATCF
tokyo bst_all.txt:Line=58418:MELOR:918 JMA text table
cma CH2009BST.txt:Storm=20:Melor CMA text table
hko tc-besttrack-data.txt:Line=33959:MELOR HKO Text table